createdAt,value
2023-05-10T00:00:44.208Z,17.30
2023-05-10T00:03:11.017Z,15.70
2023-05-10T00:05:37.664Z,18.25
2023-05-10T00:08:04.419Z,20.95
2023-05-10T00:10:30.928Z,19.35
2023-05-10T00:12:57.472Z,18.88
2023-05-10T00:15:24.028Z,19.03
2023-05-10T00:17:50.784Z,19.98
2023-05-10T00:20:17.745Z,20.77
2023-05-10T00:22:44.636Z,21.80
2023-05-10T00:25:11.550Z,21.90
2023-05-10T00:27:38.037Z,22.37
2023-05-10T00:30:05.102Z,23.85
2023-05-10T00:32:31.748Z,22.95
2023-05-10T00:34:58.216Z,16.70
2023-05-10T00:37:24.692Z,15.70
2023-05-10T00:39:51.355Z,17.53
2023-05-10T00:42:17.864Z,19.38
2023-05-10T00:44:44.354Z,23.15
2023-05-10T00:47:11.099Z,25.58
2023-05-10T00:49:37.855Z,27.88
2023-05-10T00:52:04.811Z,30.90
2023-05-10T00:54:31.570Z,30.42
2023-05-10T00:56:58.333Z,32.53
2023-05-10T00:59:25.205Z,37.75
2023-05-10T01:01:52.696Z,32.90
2023-05-10T01:04:21.099Z,35.73
2023-05-10T01:06:47.653Z,37.10
2023-05-10T01:09:14.169Z,34.75
2023-05-10T01:11:41.156Z,33.80
2023-05-10T01:14:08.176Z,32.90
2023-05-10T01:16:39.173Z,33.33
2023-05-10T01:19:13.841Z,35.67
2023-05-10T01:21:50.741Z,34.88
2023-05-10T01:24:20.198Z,41.08
2023-05-10T01:27:01.929Z,37.30
2023-05-10T01:29:30.378Z,34.33
2023-05-10T01:32:17.641Z,34.67
2023-05-10T01:35:07.308Z,36.40
2023-05-10T01:38:06.663Z,37.20
2023-05-10T01:40:53.267Z,35.17
2023-05-10T01:43:25.973Z,37.40
2023-05-10T01:46:12.913Z,35.80
2023-05-10T01:48:47.938Z,37.28
2023-05-10T01:51:18.437Z,36.92
2023-05-10T01:53:49.152Z,40.25
2023-05-10T01:56:17.084Z,35.40
2023-05-10T01:58:48.198Z,38.78
2023-05-10T02:01:15.884Z,39.30
2023-05-10T02:03:44.546Z,39.42
2023-05-10T02:06:13.735Z,37.03
2023-05-10T02:08:42.104Z,36.03
2023-05-10T02:11:12.271Z,35.85
2023-05-10T02:13:40.448Z,40.97
2023-05-10T02:16:08.196Z,37.08
2023-05-10T02:18:37.542Z,33.88
2023-05-10T02:21:04.513Z,37.33
2023-05-10T02:23:32.218Z,42.72
2023-05-10T02:26:01.116Z,41.22
2023-05-10T02:28:28.911Z,38.65
2023-05-10T02:30:56.193Z,38.30
2023-05-10T02:33:23.364Z,45.53
2023-05-10T02:35:51.712Z,46.28
2023-05-10T02:38:21.476Z,40.83
2023-05-10T02:40:49.189Z,39.00
2023-05-10T02:43:18.124Z,42.47
2023-05-10T02:45:48.281Z,37.43
2023-05-10T02:48:15.067Z,42.75
2023-05-10T02:50:45.561Z,39.85
2023-05-10T02:53:20.143Z,40.53
2023-05-10T02:55:51.583Z,48.15
2023-05-10T02:58:20.276Z,41.40
2023-05-10T03:00:47.430Z,43.38
2023-05-10T03:03:13.914Z,46.00
2023-05-10T03:05:40.337Z,48.80
2023-05-10T03:08:07.206Z,48.33
2023-05-10T03:10:39.067Z,58.50
2023-05-10T03:13:14.352Z,51.95
2023-05-10T03:15:55.965Z,54.35
2023-05-10T03:18:24.468Z,49.45
2023-05-10T03:20:54.366Z,58.42
2023-05-10T03:23:32.050Z,59.03
2023-05-10T03:26:00.413Z,56.40
2023-05-10T03:28:28.279Z,56.03
2023-05-10T03:30:56.157Z,58.00
2023-05-10T03:33:22.762Z,51.60
2023-05-10T03:35:49.247Z,49.27
2023-05-10T03:38:15.832Z,56.95
2023-05-10T03:40:42.389Z,58.65
2023-05-10T03:43:09.104Z,53.03
2023-05-10T03:45:35.762Z,58.20
2023-05-10T03:48:02.351Z,53.10
2023-05-10T03:50:29.116Z,56.22
2023-05-10T03:52:56.166Z,60.25
2023-05-10T03:55:23.460Z,58.53
2023-05-10T03:57:50.708Z,56.10
2023-05-10T04:00:17.845Z,63.10
2023-05-10T04:02:46.050Z,53.75
2023-05-10T04:05:13.506Z,51.22
2023-05-10T04:07:40.121Z,55.40
2023-05-10T04:10:07.490Z,56.20
2023-05-10T04:12:33.996Z,45.47
2023-05-10T04:15:00.432Z,52.63
2023-05-10T04:17:26.968Z,54.08
2023-05-10T04:19:55.647Z,47.00
2023-05-10T04:22:22.194Z,54.47
2023-05-10T04:24:48.702Z,52.90
2023-05-10T04:27:15.269Z,50.65
2023-05-10T04:29:42.617Z,54.47
2023-05-10T04:32:09.177Z,48.75
2023-05-10T04:34:35.687Z,56.35
2023-05-10T04:37:02.302Z,44.67
2023-05-10T04:39:28.839Z,44.35
2023-05-10T04:41:55.345Z,47.00
2023-05-10T04:44:21.882Z,52.58
2023-05-10T04:46:48.488Z,56.22
2023-05-10T04:49:15.471Z,45.90
2023-05-10T04:51:42.000Z,55.55
2023-05-10T04:54:08.515Z,50.75
2023-05-10T04:56:34.999Z,51.08
2023-05-10T04:59:01.718Z,46.88
2023-05-10T05:01:30.533Z,52.37
2023-05-10T05:03:57.288Z,50.47
2023-05-10T05:06:25.746Z,59.38
2023-05-10T05:08:52.603Z,52.50
2023-05-10T05:11:19.286Z,55.47
2023-05-10T05:13:45.817Z,47.87
2023-05-10T05:16:12.598Z,50.95
2023-05-10T05:18:39.519Z,63.30
2023-05-10T05:21:17.108Z,55.05
2023-05-10T05:23:44.097Z,57.65
2023-05-10T05:26:11.580Z,54.30
2023-05-10T05:28:38.630Z,56.28
2023-05-10T05:31:06.460Z,56.13
2023-05-10T05:33:33.097Z,61.03
2023-05-10T05:36:02.041Z,54.88
2023-05-10T05:38:28.998Z,56.77
2023-05-10T05:40:55.609Z,55.10
2023-05-10T05:43:22.100Z,53.78
2023-05-10T05:46:01.023Z,46.83
2023-05-10T05:48:27.562Z,49.58
2023-05-10T05:50:57.614Z,53.63
2023-05-10T05:53:24.799Z,56.10
2023-05-10T05:55:58.698Z,52.75
2023-05-10T05:58:26.100Z,50.75
2023-05-10T06:00:53.154Z,50.58
2023-05-10T06:03:20.236Z,51.77
2023-05-10T06:05:47.316Z,45.90
2023-05-10T06:08:13.881Z,42.83
2023-05-10T06:10:40.450Z,41.70
2023-05-10T06:13:07.018Z,48.72
2023-05-10T06:15:33.794Z,40.87
2023-05-10T06:18:00.518Z,46.00
2023-05-10T06:20:27.409Z,44.25
2023-05-10T06:22:54.062Z,42.78
2023-05-10T06:25:20.561Z,40.30
2023-05-10T06:27:50.488Z,44.30
2023-05-10T06:30:19.384Z,44.75
2023-05-10T06:32:46.364Z,43.08
2023-05-10T06:35:12.966Z,43.00
2023-05-10T06:37:39.523Z,39.30
2023-05-10T06:40:07.416Z,39.67
2023-05-10T06:42:33.846Z,37.08
2023-05-10T06:45:00.388Z,41.88
2023-05-10T06:47:26.994Z,34.67
2023-05-10T06:49:53.585Z,34.40
2023-05-10T06:52:20.079Z,34.70
2023-05-10T06:54:46.601Z,32.53
2023-05-10T06:57:27.648Z,27.75
2023-05-10T06:59:57.544Z,31.33
2023-05-10T07:02:24.103Z,27.98
2023-05-10T07:04:52.789Z,23.23
2023-05-10T07:07:20.255Z,22.00
2023-05-10T07:09:47.101Z,18.95
2023-05-10T07:12:15.378Z,20.90
2023-05-10T07:14:43.000Z,19.95
2023-05-10T07:17:10.089Z,19.00
2023-05-10T07:19:37.219Z,17.08
2023-05-10T07:22:04.205Z,17.10
2023-05-10T07:24:32.181Z,17.40
2023-05-10T07:26:58.741Z,16.17
2023-05-10T07:29:25.288Z,13.77
2023-05-10T07:31:51.874Z,13.18
2023-05-10T07:34:18.471Z,13.88
2023-05-10T07:36:45.078Z,15.20
2023-05-10T07:39:14.377Z,15.10
2023-05-10T07:41:43.063Z,11.10
2023-05-10T07:44:09.562Z,14.18
2023-05-10T07:46:36.052Z,12.15
2023-05-10T07:49:02.521Z,11.80
2023-05-10T07:51:29.538Z,9.50
2023-05-10T07:53:56.301Z,15.30
2023-05-10T07:56:31.177Z,14.50
2023-05-10T07:58:57.972Z,11.95
2023-05-10T08:01:24.965Z,13.00
2023-05-10T08:03:52.240Z,11.88
2023-05-10T08:06:20.166Z,11.27
2023-05-10T08:08:50.410Z,8.98
2023-05-10T08:11:21.481Z,12.93
2023-05-10T08:13:49.733Z,10.68
2023-05-10T08:16:18.043Z,12.10
2023-05-10T08:18:50.183Z,11.10
2023-05-10T08:21:16.980Z,10.75
2023-05-10T08:23:45.273Z,10.15
2023-05-10T08:26:12.327Z,10.32
2023-05-10T08:28:39.114Z,10.77
2023-05-10T08:31:06.625Z,14.07
2023-05-10T08:33:33.639Z,12.13
2023-05-10T08:36:00.344Z,14.43
2023-05-10T08:38:26.970Z,16.02
2023-05-10T08:40:58.159Z,11.57
2023-05-10T08:43:29.185Z,14.07
2023-05-10T08:45:57.465Z,11.23
2023-05-10T08:48:26.014Z,11.73
2023-05-10T08:50:55.848Z,11.85
2023-05-10T08:53:26.145Z,11.15
2023-05-10T08:55:53.353Z,12.93
2023-05-10T08:58:20.602Z,14.18
2023-05-10T09:00:49.929Z,11.93
2023-05-10T09:03:16.648Z,12.23
2023-05-10T09:05:43.311Z,12.88
2023-05-10T09:08:10.367Z,11.73
2023-05-10T09:10:38.089Z,11.13
2023-05-10T09:13:05.079Z,11.30
2023-05-10T09:15:31.833Z,7.63
2023-05-10T09:18:00.371Z,10.60
2023-05-10T09:20:27.012Z,10.70
2023-05-10T09:22:53.615Z,8.23
2023-05-10T09:25:20.461Z,8.30
2023-05-10T09:27:48.999Z,8.27
2023-05-10T09:30:32.305Z,7.43
2023-05-10T09:33:00.590Z,8.83
2023-05-10T09:35:31.233Z,6.80
2023-05-10T09:38:00.497Z,8.68
2023-05-10T09:40:28.985Z,6.63
2023-05-10T09:42:59.627Z,6.03
2023-05-10T09:45:29.498Z,6.17
2023-05-10T09:47:56.930Z,7.32
2023-05-10T09:50:23.844Z,6.63
2023-05-10T09:52:55.480Z,6.38
2023-05-10T09:55:24.124Z,5.70
2023-05-10T09:58:00.188Z,5.57
2023-05-10T10:00:27.295Z,6.38
2023-05-10T10:03:01.183Z,5.68
2023-05-10T10:05:30.856Z,4.00
2023-05-10T10:08:01.615Z,4.05
2023-05-10T10:10:29.106Z,4.37
2023-05-10T10:12:56.477Z,3.70
2023-05-10T10:15:23.585Z,5.30
2023-05-10T10:17:51.156Z,4.05
2023-05-10T10:20:19.526Z,5.75
2023-05-10T10:22:47.252Z,5.83
2023-05-10T10:25:16.859Z,4.60
2023-05-10T10:27:52.727Z,7.00
2023-05-10T10:30:37.347Z,6.28
2023-05-10T10:33:27.858Z,5.55
2023-05-10T10:35:56.241Z,4.93
2023-05-10T10:38:23.889Z,5.15
2023-05-10T10:41:04.007Z,6.78
2023-05-10T10:43:31.393Z,10.48
2023-05-10T10:46:18.901Z,8.35
2023-05-10T10:48:52.382Z,4.77
2023-05-10T10:51:18.993Z,5.82
2023-05-10T10:53:45.651Z,6.40
2023-05-10T10:56:15.941Z,4.45
2023-05-10T10:58:52.329Z,5.43
2023-05-10T11:01:19.955Z,3.63
2023-05-10T11:04:01.624Z,7.53
2023-05-10T11:06:33.501Z,3.97
2023-05-10T11:09:01.127Z,8.10
2023-05-10T11:11:27.707Z,5.93
2023-05-10T11:13:54.295Z,6.30
2023-05-10T11:16:25.271Z,5.90
2023-05-10T11:19:07.821Z,4.38
2023-05-10T11:21:45.371Z,6.10
2023-05-10T11:24:17.924Z,5.10
2023-05-10T11:26:45.130Z,5.30
2023-05-10T11:29:14.024Z,5.70
2023-05-10T11:31:46.325Z,4.85
2023-05-10T11:34:13.694Z,3.10
2023-05-10T11:36:40.357Z,4.10
2023-05-10T11:39:08.583Z,5.67
2023-05-10T11:41:35.177Z,4.70
2023-05-10T11:44:02.820Z,4.63
2023-05-10T11:46:29.618Z,5.13
2023-05-10T11:49:07.856Z,5.35
2023-05-10T11:51:38.048Z,4.27
2023-05-10T11:54:11.831Z,6.20
2023-05-10T11:56:42.310Z,3.90
2023-05-10T11:59:09.484Z,3.90
2023-05-10T12:01:37.073Z,2.60
2023-05-10T12:04:04.077Z,4.07
2023-05-10T12:06:33.666Z,3.30
2023-05-10T12:09:00.620Z,3.25
2023-05-10T12:11:28.674Z,3.85
2023-05-10T12:13:57.140Z,3.88
2023-05-10T12:16:25.878Z,3.53
2023-05-10T12:18:53.790Z,2.30
2023-05-10T12:21:23.629Z,4.43
2023-05-10T12:23:55.509Z,3.83
2023-05-10T12:26:27.425Z,3.92
2023-05-10T12:28:54.806Z,4.67
2023-05-10T12:31:21.728Z,3.83
2023-05-10T12:33:50.215Z,4.07
2023-05-10T12:36:17.685Z,4.47
2023-05-10T12:38:48.967Z,3.50
2023-05-10T12:41:18.694Z,3.13
2023-05-10T12:43:46.554Z,2.95
2023-05-10T12:46:18.259Z,4.03
2023-05-10T12:48:46.398Z,2.72
2023-05-10T12:51:14.206Z,3.15
2023-05-10T12:53:43.366Z,2.30
2023-05-10T12:56:11.012Z,2.58
2023-05-10T12:58:37.821Z,2.00
2023-05-10T13:01:05.750Z,2.50
2023-05-10T13:03:32.618Z,2.85
2023-05-10T13:05:59.152Z,2.13
2023-05-10T13:08:25.988Z,2.58
2023-05-10T13:10:52.562Z,1.73
2023-05-10T13:13:19.295Z,2.13
2023-05-10T13:15:45.926Z,5.85
2023-05-10T13:18:12.646Z,2.83
2023-05-10T13:20:39.311Z,3.08
2023-05-10T13:23:05.768Z,3.45
2023-05-10T13:25:32.334Z,5.60
2023-05-10T13:27:59.117Z,4.85
2023-05-10T13:30:25.606Z,5.60
2023-05-10T13:32:52.174Z,4.85
2023-05-10T13:35:18.944Z,7.70
2023-05-10T13:37:45.916Z,9.07
2023-05-10T13:40:12.658Z,5.93
2023-05-10T13:42:39.342Z,3.87
2023-05-10T13:45:06.538Z,6.78
2023-05-10T13:47:33.133Z,7.03
2023-05-10T13:49:59.847Z,4.65
2023-05-10T13:52:27.335Z,7.43
2023-05-10T13:54:56.008Z,8.10
2023-05-10T13:57:23.117Z,6.60
2023-05-10T13:59:49.914Z,7.18
2023-05-10T14:02:16.528Z,6.35
2023-05-10T14:04:43.099Z,6.22
2023-05-10T14:07:09.590Z,7.97
2023-05-10T14:09:36.124Z,7.15
2023-05-10T14:12:03.205Z,6.80
2023-05-10T14:14:30.441Z,8.32
2023-05-10T14:16:57.169Z,6.50
2023-05-10T14:19:23.938Z,6.63
2023-05-10T14:21:50.446Z,7.07
2023-05-10T14:24:17.004Z,7.60
2023-05-10T14:26:43.465Z,5.20
2023-05-10T14:29:12.254Z,5.95
2023-05-10T14:31:39.265Z,7.80
2023-05-10T14:34:06.922Z,9.00
2023-05-10T14:36:33.629Z,7.40
2023-05-10T14:39:00.281Z,7.60
2023-05-10T14:41:26.909Z,7.38
2023-05-10T14:43:55.111Z,6.20
2023-05-10T14:46:21.868Z,6.47
2023-05-10T14:48:48.501Z,8.93
2023-05-10T14:51:15.198Z,7.38
2023-05-10T14:53:41.830Z,5.50
2023-05-10T14:56:08.527Z,7.67
2023-05-10T14:58:35.105Z,7.40
2023-05-10T15:01:02.231Z,8.35
2023-05-10T15:03:29.321Z,8.23
2023-05-10T15:05:58.566Z,8.98
2023-05-10T15:08:27.887Z,9.00
2023-05-10T15:10:56.409Z,9.45
2023-05-10T15:13:22.937Z,7.43
2023-05-10T15:15:49.414Z,9.38
2023-05-10T15:18:16.166Z,10.70
2023-05-10T15:20:42.747Z,6.60
2023-05-10T15:23:09.260Z,8.00
2023-05-10T15:25:36.116Z,7.13
2023-05-10T15:28:03.897Z,7.05
2023-05-10T15:30:30.613Z,9.05
2023-05-10T15:32:57.298Z,8.57
2023-05-10T15:35:23.778Z,6.35
2023-05-10T15:37:50.434Z,8.50
2023-05-10T15:40:16.959Z,7.80
2023-05-10T15:42:43.471Z,8.98
2023-05-10T15:45:11.805Z,5.50
2023-05-10T15:47:40.753Z,7.50
2023-05-10T15:50:08.395Z,6.72
2023-05-10T15:52:35.082Z,5.40
2023-05-10T15:55:01.692Z,5.55
2023-05-10T15:57:28.360Z,7.47
2023-05-10T15:59:55.115Z,7.07
2023-05-10T16:02:22.574Z,4.35
2023-05-10T16:04:49.367Z,5.63
2023-05-10T16:07:15.984Z,5.38
2023-05-10T16:09:42.615Z,5.40
2023-05-10T16:12:09.152Z,6.65
2023-05-10T16:14:35.760Z,5.72
2023-05-10T16:17:05.248Z,6.53
2023-05-10T16:19:32.063Z,5.55
2023-05-10T16:21:58.716Z,6.23
2023-05-10T16:24:26.235Z,5.20
2023-05-10T16:26:52.818Z,5.57
2023-05-10T16:29:19.355Z,4.47
2023-05-10T16:31:46.448Z,4.20
2023-05-10T16:34:13.152Z,6.37
2023-05-10T16:36:39.689Z,5.80
2023-05-10T16:39:06.306Z,4.90
2023-05-10T16:41:34.287Z,5.85
2023-05-10T16:44:01.424Z,7.60
2023-05-10T16:46:28.091Z,5.17
2023-05-10T16:48:54.617Z,4.88
2023-05-10T16:51:21.554Z,3.78
2023-05-10T16:53:48.136Z,4.05
2023-05-10T16:56:14.755Z,5.47
2023-05-10T16:58:41.286Z,5.77
2023-05-10T17:01:07.921Z,3.20
2023-05-10T17:03:34.660Z,4.53
2023-05-10T17:06:01.421Z,4.28
2023-05-10T17:08:27.992Z,4.20
2023-05-10T17:10:54.557Z,4.10
2023-05-10T17:13:21.009Z,3.22
2023-05-10T17:15:47.595Z,4.03
2023-05-10T17:18:14.208Z,3.28
2023-05-10T17:20:44.017Z,2.92
2023-05-10T17:23:11.222Z,4.33
2023-05-10T17:25:37.705Z,6.40
2023-05-10T17:28:04.530Z,4.45
2023-05-10T17:30:32.674Z,4.00
2023-05-10T17:33:02.329Z,7.30
2023-05-10T17:35:31.322Z,5.13
2023-05-10T17:37:58.280Z,5.43
2023-05-10T17:40:24.874Z,4.05
2023-05-10T17:42:52.262Z,3.92
2023-05-10T17:45:19.127Z,4.55
2023-05-10T17:47:45.962Z,4.47
2023-05-10T17:50:12.525Z,7.20
2023-05-10T17:52:39.047Z,7.85
2023-05-10T17:55:06.209Z,4.13
2023-05-10T17:57:33.197Z,4.65
2023-05-10T17:59:59.965Z,4.10
2023-05-10T18:02:26.429Z,5.18
2023-05-10T18:04:53.226Z,4.85
2023-05-10T18:07:20.443Z,4.90
2023-05-10T18:09:46.884Z,6.85
2023-05-10T18:12:13.683Z,6.83
2023-05-10T18:14:41.470Z,4.82
2023-05-10T18:17:09.533Z,5.88
2023-05-10T18:19:36.408Z,7.07
2023-05-10T18:22:03.247Z,10.57
2023-05-10T18:24:38.878Z,7.17
2023-05-10T18:27:08.390Z,6.80
2023-05-10T18:29:35.189Z,11.15
2023-05-10T18:32:01.717Z,9.10
2023-05-10T18:34:28.782Z,7.20
2023-05-10T18:36:55.858Z,9.40
2023-05-10T18:39:22.395Z,6.55
2023-05-10T18:41:50.643Z,7.43
2023-05-10T18:44:18.799Z,7.28
2023-05-10T18:46:45.511Z,7.80
2023-05-10T18:49:12.065Z,6.33
2023-05-10T18:51:38.553Z,9.93
2023-05-10T18:54:05.070Z,7.93
2023-05-10T18:56:31.589Z,6.55
2023-05-10T18:58:58.118Z,7.20
2023-05-10T19:01:24.687Z,7.03
2023-05-10T19:03:51.186Z,6.78
2023-05-10T19:06:17.721Z,10.38
2023-05-10T19:08:44.272Z,8.25
2023-05-10T19:11:10.941Z,13.80
2023-05-10T19:13:37.420Z,10.87
2023-05-10T19:16:06.102Z,10.70
2023-05-10T19:18:33.742Z,9.23
2023-05-10T19:21:04.350Z,14.73
2023-05-10T19:23:34.619Z,10.73
2023-05-10T19:26:01.624Z,7.73
2023-05-10T19:28:28.421Z,11.52
2023-05-10T19:30:55.106Z,14.27
2023-05-10T19:33:21.751Z,11.32
2023-05-10T19:35:52.097Z,10.90
2023-05-10T19:38:25.614Z,9.40
2023-05-10T19:40:58.101Z,11.80
2023-05-10T19:43:28.792Z,8.90
2023-05-10T19:45:58.966Z,11.30
2023-05-10T19:48:25.792Z,11.23
2023-05-10T19:50:53.494Z,10.43
2023-05-10T19:53:20.192Z,11.30
2023-05-10T19:55:46.655Z,8.60
2023-05-10T19:58:13.602Z,11.02
2023-05-10T20:00:40.657Z,9.23
2023-05-10T20:03:09.181Z,10.30
2023-05-10T20:05:35.881Z,10.27
2023-05-10T20:08:02.653Z,12.82
2023-05-10T20:10:29.367Z,12.50
2023-05-10T20:12:56.074Z,9.10
2023-05-10T20:15:23.625Z,10.13
2023-05-10T20:17:52.725Z,14.60
2023-05-10T20:20:20.625Z,10.43
2023-05-10T20:22:48.580Z,12.68
2023-05-10T20:25:16.240Z,7.72
2023-05-10T20:27:42.978Z,8.80
2023-05-10T20:30:10.445Z,9.15
2023-05-10T20:32:37.867Z,9.82
2023-05-10T20:35:05.736Z,8.93
2023-05-10T20:37:32.196Z,10.65
2023-05-10T20:39:58.850Z,9.63
2023-05-10T20:42:25.653Z,7.80
2023-05-10T20:44:52.354Z,7.40
2023-05-10T20:47:19.055Z,10.30
2023-05-10T20:49:45.915Z,9.18
2023-05-10T20:52:12.644Z,10.60
2023-05-10T20:54:39.228Z,7.65
2023-05-10T20:57:05.872Z,8.88
2023-05-10T20:59:32.370Z,8.95
2023-05-10T21:01:59.127Z,9.80
2023-05-10T21:04:25.990Z,11.73
2023-05-10T21:06:53.046Z,11.20
2023-05-10T21:09:19.663Z,11.88
2023-05-10T21:11:46.226Z,10.18
2023-05-10T21:14:12.821Z,10.88
2023-05-10T21:16:39.807Z,9.30
2023-05-10T21:19:07.629Z,10.60
2023-05-10T21:21:34.421Z,11.80
2023-05-10T21:24:01.121Z,10.57
2023-05-10T21:26:27.681Z,11.98
2023-05-10T21:28:54.363Z,12.60
2023-05-10T21:31:21.039Z,11.38
2023-05-10T21:33:47.713Z,8.65
2023-05-10T21:36:14.278Z,11.23
2023-05-10T21:38:42.232Z,11.30
2023-05-10T21:41:08.727Z,9.43
2023-05-10T21:43:35.261Z,10.73
2023-05-10T21:46:01.875Z,8.40
2023-05-10T21:48:28.434Z,7.45
2023-05-10T21:50:55.081Z,8.77
2023-05-10T21:53:22.387Z,11.23
2023-05-10T21:55:49.008Z,12.63
2023-05-10T21:58:15.799Z,9.25
2023-05-10T22:00:42.328Z,9.20
2023-05-10T22:03:09.035Z,11.63
2023-05-10T22:05:35.620Z,9.37
2023-05-10T22:08:02.164Z,7.35
2023-05-10T22:10:28.713Z,12.43
2023-05-10T22:12:55.304Z,9.52
2023-05-10T22:15:21.941Z,8.68
2023-05-10T22:17:48.517Z,7.97
2023-05-10T22:20:15.118Z,7.38
2023-05-10T22:22:41.750Z,12.10
2023-05-10T22:25:09.123Z,11.43
2023-05-10T22:27:35.831Z,9.25
2023-05-10T22:30:04.088Z,8.23
2023-05-10T22:32:31.916Z,8.85
2023-05-10T22:34:58.498Z,10.90
2023-05-10T22:37:24.965Z,10.05
2023-05-10T22:39:51.429Z,12.77
2023-05-10T22:42:18.005Z,11.50
2023-05-10T22:44:44.568Z,10.57
2023-05-10T22:47:11.331Z,12.60
2023-05-10T22:49:38.098Z,10.95
2023-05-10T22:52:04.524Z,13.75
2023-05-10T22:54:31.079Z,11.63
2023-05-10T22:56:57.794Z,10.00
2023-05-10T22:59:24.345Z,9.90
2023-05-10T23:01:51.062Z,11.90
2023-05-10T23:04:18.085Z,11.10
2023-05-10T23:06:45.874Z,12.87
2023-05-10T23:09:12.674Z,14.75
2023-05-10T23:11:39.450Z,12.75
2023-05-10T23:14:05.995Z,13.90
2023-05-10T23:16:32.671Z,13.07
2023-05-10T23:18:59.201Z,16.10
2023-05-10T23:21:25.809Z,14.70
2023-05-10T23:23:52.520Z,12.23
2023-05-10T23:26:19.278Z,17.00
2023-05-10T23:28:45.756Z,17.00
2023-05-10T23:31:12.265Z,14.23
2023-05-10T23:33:38.810Z,15.18
2023-05-10T23:36:05.712Z,15.32
2023-05-10T23:38:32.269Z,14.45
2023-05-10T23:40:58.767Z,14.70
2023-05-10T23:43:25.646Z,15.70
2023-05-10T23:45:56.840Z,16.15
2023-05-10T23:48:24.130Z,14.32
2023-05-10T23:50:50.806Z,14.25
2023-05-10T23:53:17.439Z,16.75
2023-05-10T23:55:44.240Z,18.80
2023-05-10T23:58:11.014Z,15.95
